createdAt,value
2022-07-28T00:00:22.591Z,19.18
2022-07-28T00:03:24.350Z,19.12
2022-07-28T00:06:27.763Z,19.15
2022-07-28T00:09:29.503Z,19.11
2022-07-28T00:12:31.207Z,19.06
2022-07-28T00:15:32.979Z,19.03
2022-07-28T00:18:34.720Z,19.02
2022-07-28T00:21:37.849Z,19.03
2022-07-28T00:24:39.594Z,18.98
2022-07-28T00:27:41.386Z,18.97
2022-07-28T00:30:43.134Z,18.80
2022-07-28T00:33:45.514Z,18.87
2022-07-28T00:36:48.688Z,18.89
2022-07-28T00:39:50.898Z,18.88
2022-07-28T00:42:52.617Z,18.80
2022-07-28T00:45:54.940Z,18.89
2022-07-28T00:48:56.654Z,18.92
2022-07-28T00:52:00.274Z,18.78
2022-07-28T00:55:03.872Z,18.71
2022-07-28T00:58:05.883Z,18.68
2022-07-28T01:01:08.943Z,18.68
2022-07-28T01:04:10.677Z,18.67
2022-07-28T01:07:19.577Z,18.61
2022-07-28T01:10:28.734Z,18.64
2022-07-28T01:13:36.071Z,18.71
2022-07-28T01:16:42.675Z,18.61
2022-07-28T01:19:48.614Z,18.66
2022-07-28T01:22:58.448Z,18.62
2022-07-28T01:26:06.398Z,18.67
2022-07-28T01:29:16.275Z,18.55
2022-07-28T01:32:23.603Z,18.56
2022-07-28T01:35:27.314Z,18.61
2022-07-28T01:38:31.956Z,18.53
2022-07-28T01:41:36.364Z,18.45
2022-07-28T01:44:40.916Z,18.34
2022-07-28T01:47:45.250Z,18.39
2022-07-28T01:50:49.010Z,18.34
2022-07-28T01:53:52.311Z,18.26
2022-07-28T01:56:55.868Z,18.29
2022-07-28T01:59:58.901Z,18.26
2022-07-28T02:03:03.283Z,18.06
2022-07-28T02:06:06.233Z,18.01
2022-07-28T02:09:08.364Z,17.84
2022-07-28T02:12:13.080Z,17.92
2022-07-28T02:15:15.752Z,17.80
2022-07-28T02:18:18.912Z,17.80
2022-07-28T02:21:21.275Z,17.90
2022-07-28T02:24:24.174Z,17.81
2022-07-28T02:27:34.322Z,17.68
2022-07-28T02:30:38.372Z,17.68
2022-07-28T02:33:58.776Z,17.55
2022-07-28T02:37:02.647Z,17.60
2022-07-28T02:40:06.062Z,17.52
2022-07-28T02:43:10.446Z,17.60
2022-07-28T02:46:14.707Z,17.50
2022-07-28T02:49:19.376Z,17.46
2022-07-28T02:52:22.513Z,17.57
2022-07-28T02:55:24.370Z,17.44
2022-07-28T02:58:27.800Z,17.20
2022-07-28T03:01:30.474Z,16.80
2022-07-28T03:04:35.474Z,16.82
2022-07-28T03:07:37.233Z,17.06
2022-07-28T03:11:05.870Z,17.16
2022-07-28T03:14:07.735Z,17.17
2022-07-28T03:17:09.574Z,17.26
2022-07-28T03:20:13.011Z,17.24
2022-07-28T03:23:15.369Z,17.00
2022-07-28T03:26:19.458Z,16.74
2022-07-28T03:29:22.705Z,16.76
2022-07-28T03:32:25.646Z,16.78
2022-07-28T03:35:28.947Z,16.89
2022-07-28T03:38:35.639Z,16.97
2022-07-28T03:41:38.106Z,16.80
2022-07-28T03:44:40.511Z,16.79
2022-07-28T03:47:49.526Z,16.91
2022-07-28T03:50:52.666Z,16.83
2022-07-28T03:53:54.313Z,16.87
2022-07-28T03:56:56.021Z,16.93
2022-07-28T03:59:57.707Z,16.78
2022-07-28T04:02:59.398Z,16.73
2022-07-28T04:06:02.461Z,16.74
2022-07-28T04:09:04.329Z,16.85
2022-07-28T04:12:06.342Z,16.98
2022-07-28T04:15:12.152Z,16.75
2022-07-28T04:18:13.791Z,16.79
2022-07-28T04:21:16.820Z,16.67
2022-07-28T04:24:18.922Z,16.66
2022-07-28T04:27:20.769Z,16.51
2022-07-28T04:30:23.374Z,16.49
2022-07-28T04:33:25.282Z,16.52
2022-07-28T04:36:28.338Z,16.63
2022-07-28T04:39:29.953Z,16.65
2022-07-28T04:42:31.613Z,16.63
2022-07-28T04:45:33.511Z,16.58
2022-07-28T04:48:35.242Z,16.50
2022-07-28T04:51:38.335Z,16.48
2022-07-28T04:54:39.951Z,16.51
2022-07-28T04:57:41.587Z,16.56
2022-07-28T05:00:43.301Z,16.55
2022-07-28T05:03:45.038Z,16.65
2022-07-28T05:06:48.084Z,16.65
2022-07-28T05:09:49.748Z,16.62
2022-07-28T05:12:51.404Z,16.63
2022-07-28T05:15:53.028Z,16.74
2022-07-28T05:18:54.678Z,16.75
2022-07-28T05:21:57.685Z,16.63
2022-07-28T05:24:59.343Z,16.73
2022-07-28T05:28:01.026Z,16.86
2022-07-28T05:31:02.765Z,16.81
2022-07-28T05:34:04.414Z,16.90
2022-07-28T05:37:07.400Z,16.80
2022-07-28T05:40:10.587Z,16.78
2022-07-28T05:43:12.222Z,16.85
2022-07-28T05:46:13.905Z,17.05
2022-07-28T05:49:15.714Z,17.00
2022-07-28T05:52:18.859Z,17.09
2022-07-28T05:55:20.529Z,17.05
2022-07-28T05:58:22.518Z,16.96
2022-07-28T06:01:24.233Z,17.10
2022-07-28T06:04:27.740Z,17.08
2022-07-28T06:07:42.891Z,17.07
2022-07-28T06:10:45.546Z,17.15
2022-07-28T06:13:47.222Z,17.28
2022-07-28T06:16:48.857Z,17.24
2022-07-28T06:19:50.529Z,17.34
2022-07-28T06:22:54.532Z,17.24
2022-07-28T06:25:56.361Z,17.21
2022-07-28T06:28:58.045Z,17.25
2022-07-28T06:31:59.797Z,17.27
2022-07-28T06:35:02.450Z,17.31
2022-07-28T06:38:05.538Z,17.19
2022-07-28T06:41:07.281Z,17.27
2022-07-28T06:44:09.088Z,17.22
2022-07-28T06:47:10.854Z,17.21
2022-07-28T06:50:24.924Z,17.28
2022-07-28T06:53:33.663Z,17.28
2022-07-28T06:56:35.631Z,17.13
2022-07-28T06:59:37.508Z,17.27
2022-07-28T07:02:39.223Z,17.36
2022-07-28T07:05:41.002Z,17.26
2022-07-28T07:08:44.055Z,17.42
2022-07-28T07:11:45.770Z,17.56
2022-07-28T07:14:47.443Z,17.55
2022-07-28T07:17:49.132Z,17.39
2022-07-28T07:20:50.799Z,17.43
2022-07-28T07:23:53.818Z,17.38
2022-07-28T07:26:55.469Z,17.72
2022-07-28T07:29:57.345Z,17.74
2022-07-28T07:32:58.999Z,17.88
2022-07-28T07:36:00.664Z,17.80
2022-07-28T07:39:03.749Z,17.85
2022-07-28T07:42:05.632Z,17.94
2022-07-28T07:45:07.863Z,18.01
2022-07-28T07:48:09.734Z,18.03
2022-07-28T07:51:15.475Z,18.02
2022-07-28T07:54:18.787Z,18.07
2022-07-28T07:57:20.612Z,18.01
2022-07-28T08:00:28.811Z,18.13
2022-07-28T08:03:31.178Z,18.38
2022-07-28T08:06:34.565Z,18.31
2022-07-28T08:09:38.948Z,18.35
2022-07-28T08:12:40.703Z,18.45
2022-07-28T08:15:42.382Z,18.63
2022-07-28T08:18:44.003Z,18.51
2022-07-28T08:21:45.627Z,18.65
2022-07-28T08:24:48.696Z,18.74
2022-07-28T08:27:50.359Z,18.88
2022-07-28T08:30:52.040Z,18.92
2022-07-28T08:33:54.941Z,19.19
2022-07-28T08:36:56.843Z,19.17
2022-07-28T08:39:59.974Z,19.12
2022-07-28T08:43:03.680Z,19.06
2022-07-28T08:46:05.953Z,19.17
2022-07-28T08:49:08.337Z,19.12
2022-07-28T08:52:10.749Z,19.35
2022-07-28T08:55:19.401Z,19.71
2022-07-28T08:58:21.792Z,19.95
2022-07-28T09:01:23.504Z,20.07
2022-07-28T09:04:25.923Z,19.75
2022-07-28T09:07:28.149Z,20.04
2022-07-28T09:10:31.254Z,20.23
2022-07-28T09:13:32.955Z,20.32
2022-07-28T09:16:34.605Z,20.31
2022-07-28T09:19:36.245Z,20.30
2022-07-28T09:22:54.058Z,20.26
2022-07-28T09:26:10.541Z,20.39
2022-07-28T09:29:12.847Z,20.37
2022-07-28T09:32:14.954Z,20.55
2022-07-28T09:35:20.116Z,20.38
2022-07-28T09:38:22.508Z,20.40
2022-07-28T09:41:25.568Z,20.14
2022-07-28T09:44:27.767Z,20.33
2022-07-28T09:47:29.581Z,20.51
2022-07-28T09:50:31.327Z,20.74
2022-07-28T09:53:33.093Z,20.68
2022-07-28T09:56:36.132Z,20.72
2022-07-28T09:59:41.384Z,20.84
2022-07-28T10:02:49.679Z,21.05
2022-07-28T10:05:53.975Z,20.91
2022-07-28T10:08:56.281Z,21.09
2022-07-28T10:15:31.135Z,21.24
2022-07-28T10:18:33.070Z,21.32
2022-07-28T10:21:36.055Z,21.42
2022-07-28T10:24:39.034Z,21.40
2022-07-28T10:27:41.323Z,21.63
2022-07-28T10:30:44.983Z,21.66
2022-07-28T10:33:48.558Z,21.87
2022-07-28T10:36:50.597Z,21.86
2022-07-28T10:39:57.107Z,22.04
2022-07-28T10:42:59.822Z,21.84
2022-07-28T10:46:06.183Z,21.98
2022-07-28T10:49:09.948Z,21.97
2022-07-28T10:52:30.702Z,22.21
2022-07-28T10:55:37.076Z,22.20
2022-07-28T10:58:40.849Z,22.25
2022-07-28T11:01:49.634Z,22.37
2022-07-28T11:04:52.862Z,22.36
2022-07-28T11:07:54.906Z,22.65
2022-07-28T11:11:07.666Z,23.00
2022-07-28T11:14:30.750Z,22.97
2022-07-28T11:17:34.197Z,23.18
2022-07-28T11:20:56.479Z,23.29
2022-07-28T11:24:02.377Z,23.05
2022-07-28T11:27:04.338Z,23.23
2022-07-28T11:30:06.272Z,23.64
2022-07-28T11:33:09.452Z,23.62
2022-07-28T11:36:11.149Z,23.74
2022-07-28T11:39:22.116Z,23.87
2022-07-28T11:42:25.017Z,24.07
2022-07-28T11:45:37.809Z,24.08
2022-07-28T11:48:43.558Z,23.90
2022-07-28T11:52:03.993Z,23.98
2022-07-28T11:55:06.216Z,24.22
2022-07-28T11:58:07.857Z,24.33
2022-07-28T12:01:17.254Z,24.64
2022-07-28T12:04:26.005Z,24.64
2022-07-28T12:07:31.001Z,24.74
2022-07-28T12:13:58.817Z,24.83
2022-07-28T12:17:00.660Z,24.62
2022-07-28T12:20:04.676Z,24.81
2022-07-28T12:23:17.312Z,24.91
2022-07-28T12:26:31.759Z,24.86
2022-07-28T12:29:35.832Z,25.03
2022-07-28T12:32:37.971Z,25.04
2022-07-28T12:35:41.135Z,25.27
2022-07-28T12:38:42.860Z,25.31
2022-07-28T12:41:44.512Z,25.41
2022-07-28T12:44:47.240Z,25.51
2022-07-28T12:47:48.971Z,24.88
2022-07-28T12:50:52.003Z,25.20
2022-07-28T12:53:53.644Z,25.47
2022-07-28T12:56:55.319Z,25.54
2022-07-28T13:00:05.297Z,25.65
2022-07-28T13:03:19.952Z,25.74
2022-07-28T13:06:23.012Z,25.82
2022-07-28T13:09:32.889Z,26.07
2022-07-28T13:12:36.998Z,25.91
2022-07-28T13:15:38.637Z,26.01
2022-07-28T13:18:40.562Z,26.21
2022-07-28T13:21:58.425Z,26.08
2022-07-28T13:25:02.504Z,26.02
2022-07-28T13:28:05.425Z,26.10
2022-07-28T13:31:07.475Z,26.36
2022-07-28T13:34:09.930Z,26.37
2022-07-28T13:37:13.053Z,26.25
2022-07-28T13:40:14.914Z,26.42
2022-07-28T13:43:16.648Z,26.60
2022-07-28T13:46:18.895Z,26.61
2022-07-28T13:49:21.514Z,26.67
2022-07-28T13:52:33.175Z,26.65
2022-07-28T13:55:37.208Z,26.84
2022-07-28T13:58:38.877Z,26.80
2022-07-28T14:01:43.422Z,26.95
2022-07-28T14:04:45.924Z,26.95
2022-07-28T14:07:53.075Z,26.64
2022-07-28T14:10:55.369Z,26.62
2022-07-28T14:13:57.070Z,26.89
2022-07-28T14:17:00.130Z,27.19
2022-07-28T14:20:02.041Z,27.16
2022-07-28T14:23:05.275Z,27.20
2022-07-28T14:26:34.027Z,27.29
2022-07-28T14:29:28.755Z,27.14
2022-07-28T14:32:30.650Z,27.18
2022-07-28T14:35:32.598Z,27.29
2022-07-28T14:38:52.202Z,27.39
2022-07-28T14:41:54.495Z,27.44
2022-07-28T14:44:56.455Z,27.23
2022-07-28T14:47:58.248Z,27.50
2022-07-28T14:51:00.106Z,27.40
2022-07-28T14:54:03.541Z,27.57
2022-07-28T14:57:05.255Z,27.65
2022-07-28T15:00:07.856Z,27.95
2022-07-28T15:03:09.633Z,27.80
2022-07-28T15:09:44.206Z,27.52
2022-07-28T15:12:46.980Z,27.87
2022-07-28T15:15:48.889Z,28.16
2022-07-28T15:18:51.172Z,28.20
2022-07-28T15:21:52.981Z,28.25
2022-07-28T15:24:56.154Z,28.45
2022-07-28T15:27:57.911Z,28.50
2022-07-28T15:30:59.738Z,28.40
2022-07-28T15:34:01.504Z,28.84
2022-07-28T15:37:03.658Z,28.83
2022-07-28T15:40:07.663Z,28.61
2022-07-28T15:43:09.369Z,28.71
2022-07-28T15:46:12.290Z,28.35
2022-07-28T15:49:14.281Z,28.67
2022-07-28T15:52:16.047Z,28.76
2022-07-28T15:55:19.300Z,28.96
2022-07-28T15:58:21.715Z,29.00
2022-07-28T16:01:23.633Z,29.04
2022-07-28T16:04:25.442Z,29.25
2022-07-28T16:07:27.225Z,29.22
2022-07-28T16:10:30.410Z,29.40
2022-07-28T16:13:36.328Z,29.32
2022-07-28T16:16:39.124Z,29.25
2022-07-28T16:19:50.040Z,29.13
2022-07-28T16:22:52.286Z,29.16
2022-07-28T16:25:55.482Z,29.23
2022-07-28T16:28:57.308Z,29.32
2022-07-28T16:31:59.049Z,29.03
2022-07-28T16:35:00.756Z,29.46
2022-07-28T16:38:03.563Z,29.28
2022-07-28T16:41:06.681Z,29.72
2022-07-28T16:44:09.103Z,29.34
2022-07-28T16:47:10.965Z,29.37
2022-07-28T16:53:39.358Z,28.62
2022-07-28T16:56:42.592Z,28.40
2022-07-28T16:59:48.296Z,28.42
2022-07-28T17:02:50.683Z,28.42
2022-07-28T17:05:53.073Z,28.30
2022-07-28T17:08:54.867Z,28.01
2022-07-28T17:15:24.354Z,27.57
2022-07-28T17:18:26.091Z,27.46
2022-07-28T17:21:28.413Z,27.32
2022-07-28T17:24:30.190Z,27.31
2022-07-28T17:27:37.652Z,27.29
2022-07-28T17:30:40.160Z,27.39
2022-07-28T17:33:41.985Z,27.51
2022-07-28T17:36:43.799Z,27.12
2022-07-28T17:39:46.094Z,26.93
2022-07-28T17:42:49.296Z,26.96
2022-07-28T17:45:51.197Z,27.21
2022-07-28T17:48:52.954Z,27.62
2022-07-28T17:51:54.750Z,27.83
2022-07-28T17:54:56.482Z,28.01
2022-07-28T17:58:10.531Z,28.20
2022-07-28T18:01:13.593Z,28.35
2022-07-28T18:04:15.744Z,28.18
2022-07-28T18:07:17.696Z,28.26
2022-07-28T18:14:04.994Z,28.01
2022-07-28T18:17:07.227Z,27.99
2022-07-28T18:20:09.500Z,27.42
2022-07-28T18:23:12.457Z,26.90
2022-07-28T18:26:14.145Z,26.50
2022-07-28T18:29:17.845Z,26.32
2022-07-28T18:32:19.581Z,25.88
2022-07-28T18:35:21.993Z,25.97
2022-07-28T18:38:23.721Z,25.76
2022-07-28T18:44:53.404Z,25.60
2022-07-28T18:47:55.170Z,25.51
2022-07-28T18:50:56.880Z,25.52
2022-07-28T18:53:58.959Z,25.57
2022-07-28T18:57:00.674Z,25.49
2022-07-28T19:00:04.881Z,25.45
2022-07-28T19:03:06.674Z,25.38
2022-07-28T19:06:08.457Z,25.28
2022-07-28T19:09:10.277Z,25.13
2022-07-28T19:12:12.112Z,24.98
2022-07-28T19:15:15.341Z,24.83
2022-07-28T19:18:17.170Z,24.60
2022-07-28T19:21:18.876Z,24.63
2022-07-28T19:24:20.962Z,24.60
2022-07-28T19:27:22.972Z,24.49
2022-07-28T19:30:27.428Z,24.03
2022-07-28T19:33:29.151Z,24.27
2022-07-28T19:36:31.001Z,24.15
2022-07-28T19:39:32.766Z,24.22
2022-07-28T19:42:34.603Z,24.26
2022-07-28T19:45:37.714Z,24.25
2022-07-28T19:48:39.534Z,24.21
2022-07-28T19:51:41.271Z,24.25
2022-07-28T19:54:43.053Z,24.19
2022-07-28T19:57:53.053Z,24.26
2022-07-28T20:00:56.703Z,24.24
2022-07-28T20:04:02.430Z,24.27
2022-07-28T20:07:06.035Z,24.31
2022-07-28T20:10:08.245Z,24.29
2022-07-28T20:13:10.065Z,24.28
2022-07-28T20:16:13.290Z,24.08
2022-07-28T20:19:15.086Z,24.05
2022-07-28T20:22:16.810Z,23.95
2022-07-28T20:25:18.449Z,23.80
2022-07-28T20:28:20.162Z,23.85
2022-07-28T20:31:23.324Z,23.65
2022-07-28T20:34:25.089Z,23.55
2022-07-28T20:37:36.104Z,23.69
2022-07-28T20:40:39.096Z,23.62
2022-07-28T20:43:40.845Z,23.52
2022-07-28T20:46:43.889Z,23.55
2022-07-28T20:49:45.512Z,23.59
2022-07-28T20:52:47.297Z,23.45
2022-07-28T20:55:48.926Z,23.42
2022-07-28T20:58:50.638Z,23.38
2022-07-28T21:01:53.826Z,23.42
2022-07-28T21:04:55.543Z,23.30
2022-07-28T21:08:00.698Z,23.28
2022-07-28T21:11:07.255Z,23.32
2022-07-28T21:14:08.928Z,23.41
2022-07-28T21:17:12.110Z,23.45
2022-07-28T21:20:13.924Z,23.38
2022-07-28T21:23:15.586Z,23.46
2022-07-28T21:26:17.247Z,23.37
2022-07-28T21:32:20.849Z,23.31
2022-07-28T21:35:22.779Z,23.26
2022-07-28T21:38:24.445Z,23.24
2022-07-28T21:41:26.502Z,23.30
2022-07-28T21:44:38.366Z,23.11
2022-07-28T21:47:41.452Z,23.12
2022-07-28T21:50:43.098Z,23.00
2022-07-28T21:53:44.751Z,23.08
2022-07-28T21:56:46.456Z,23.07
2022-07-28T21:59:48.121Z,23.04
2022-07-28T22:02:51.894Z,22.94
2022-07-28T22:05:53.883Z,23.05
2022-07-28T22:08:55.627Z,23.07
2022-07-28T22:11:57.342Z,23.00
2022-07-28T22:14:58.998Z,22.91
2022-07-28T22:18:02.044Z,22.86
2022-07-28T22:21:03.863Z,22.82
2022-07-28T22:24:05.679Z,22.72
2022-07-28T22:27:07.298Z,22.70
2022-07-28T22:30:09.618Z,22.80
2022-07-28T22:33:12.668Z,22.68
2022-07-28T22:36:14.362Z,22.76
2022-07-28T22:39:16.029Z,22.88
2022-07-28T22:42:17.837Z,22.72
2022-07-28T22:45:50.165Z,22.79
2022-07-28T22:48:42.715Z,22.69
2022-07-28T22:51:46.448Z,22.66
2022-07-28T22:54:49.944Z,22.69
2022-07-28T22:57:51.594Z,22.56
2022-07-28T23:00:53.243Z,22.62
2022-07-28T23:03:56.487Z,22.71
2022-07-28T23:06:58.762Z,22.64
2022-07-28T23:10:01.817Z,22.63
2022-07-28T23:13:03.479Z,22.53
2022-07-28T23:16:07.065Z,22.59
2022-07-28T23:19:10.122Z,22.53
2022-07-28T23:22:11.808Z,22.41
2022-07-28T23:25:13.461Z,22.21
2022-07-28T23:28:15.211Z,22.04
2022-07-28T23:31:16.976Z,22.00
2022-07-28T23:34:20.104Z,21.92
2022-07-28T23:37:21.854Z,21.92
2022-07-28T23:40:23.705Z,21.77
2022-07-28T23:43:25.400Z,21.72
2022-07-28T23:46:27.160Z,21.80
2022-07-28T23:49:30.285Z,21.86
2022-07-28T23:52:31.998Z,21.88
2022-07-28T23:55:33.679Z,22.00
2022-07-28T23:58:35.646Z,21.99
